createdAt,value
2017-04-09T00:00:11.185Z,22.65
2017-04-09T00:00:29.958Z,22.63
2017-04-09T00:00:49.267Z,22.65
2017-04-09T00:01:08.587Z,22.69
2017-04-09T00:01:27.873Z,22.67
2017-04-09T00:01:47.123Z,22.68
2017-04-09T00:02:06.448Z,22.69
2017-04-09T00:02:24.715Z,22.62
2017-04-09T00:02:44.018Z,22.67
2017-04-09T00:03:02.807Z,22.53
2017-04-09T00:03:22.126Z,22.52
2017-04-09T00:03:41.421Z,22.59
2017-04-09T00:04:00.745Z,22.54
2017-04-09T00:04:20.053Z,22.57
2017-04-09T00:04:39.305Z,22.54
2017-04-09T00:04:58.621Z,22.65
2017-04-09T00:05:17.889Z,22.6
2017-04-09T00:05:36.672Z,22.68
2017-04-09T00:05:55.945Z,22.56
2017-04-09T00:06:15.197Z,22.63
2017-04-09T00:06:34.492Z,22.62
2017-04-09T00:06:53.794Z,22.67
2017-04-09T00:07:13.111Z,22.67
2017-04-09T00:07:32.388Z,22.6
2017-04-09T00:07:51.697Z,22.6
2017-04-09T00:08:10.453Z,22.63
2017-04-09T00:08:29.765Z,22.53
2017-04-09T00:08:49.044Z,22.62
2017-04-09T00:09:08.326Z,22.67
2017-04-09T00:09:27.655Z,22.65
2017-04-09T00:09:46.923Z,22.72
2017-04-09T00:10:06.243Z,22.69
2017-04-09T00:10:25.044Z,22.65
2017-04-09T00:10:44.316Z,22.67
2017-04-09T00:11:03.065Z,22.65
2017-04-09T00:11:22.325Z,22.68
2017-04-09T00:11:41.622Z,22.72
2017-04-09T00:12:00.924Z,22.69
2017-04-09T00:12:20.217Z,22.63
2017-04-09T00:12:39.523Z,22.68
2017-04-09T00:12:58.392Z,22.72
2017-04-09T00:13:17.690Z,22.71
2017-04-09T00:13:37.001Z,22.74
2017-04-09T00:13:56.278Z,22.65
2017-04-09T00:14:15.559Z,22.65
2017-04-09T00:14:34.830Z,22.62
2017-04-09T00:14:53.597Z,22.56
2017-04-09T00:15:12.880Z,22.62
2017-04-09T00:15:32.178Z,22.67
2017-04-09T00:15:51.465Z,22.62
2017-04-09T00:16:10.208Z,22.54
2017-04-09T00:16:28.986Z,22.56
2017-04-09T00:16:48.274Z,22.65
2017-04-09T00:17:07.591Z,22.68
2017-04-09T00:17:26.898Z,22.68
2017-04-09T00:17:46.175Z,22.68
2017-04-09T00:18:05.461Z,22.65
2017-04-09T00:18:24.754Z,22.67
2017-04-09T00:18:43.536Z,22.6
2017-04-09T00:19:02.833Z,22.62
2017-04-09T00:19:21.584Z,22.63
2017-04-09T00:19:40.837Z,22.69
2017-04-09T00:19:59.580Z,22.62
2017-04-09T00:20:18.846Z,22.67
2017-04-09T00:20:37.597Z,22.71
2017-04-09T00:20:56.875Z,22.62
2017-04-09T00:21:16.155Z,22.71
2017-04-09T00:21:35.431Z,22.59
2017-04-09T00:21:54.686Z,22.71
2017-04-09T00:22:13.963Z,22.67
2017-04-09T00:22:33.242Z,22.62
2017-04-09T00:22:52.547Z,22.56
2017-04-09T00:23:11.788Z,22.67
2017-04-09T00:23:30.537Z,22.62
2017-04-09T00:23:49.843Z,22.68
2017-04-09T00:24:09.155Z,22.5
2017-04-09T00:24:28.416Z,22.56
2017-04-09T00:24:47.703Z,22.6
2017-04-09T00:25:07.012Z,22.57
2017-04-09T00:25:26.304Z,22.54
2017-04-09T00:25:45.610Z,22.57
2017-04-09T00:26:04.911Z,22.54
2017-04-09T00:26:24.188Z,22.63
2017-04-09T00:26:43.535Z,22.56
2017-04-09T00:27:02.837Z,22.52
2017-04-09T00:27:21.082Z,22.56
2017-04-09T00:27:40.378Z,22.42
2017-04-09T00:28:00.121Z,22.42
2017-04-09T00:28:19.416Z,22.52
2017-04-09T00:28:38.224Z,22.49
2017-04-09T00:28:57.569Z,22.5
2017-04-09T00:29:16.862Z,22.37
2017-04-09T00:29:36.129Z,22.52
2017-04-09T00:29:55.440Z,22.42
2017-04-09T00:30:14.742Z,22.46
2017-04-09T00:30:33.553Z,22.49
2017-04-09T00:30:52.864Z,22.52
2017-04-09T00:31:11.631Z,22.41
2017-04-09T00:31:30.916Z,22.46
2017-04-09T00:31:50.230Z,22.39
2017-04-09T00:32:09.523Z,22.49
2017-04-09T00:32:28.799Z,22.49
2017-04-09T00:32:48.084Z,22.42
2017-04-09T00:33:07.469Z,22.49
2017-04-09T00:33:26.746Z,22.42
2017-04-09T00:33:46.052Z,22.42
2017-04-09T00:34:05.320Z,22.49
2017-04-09T00:34:24.113Z,22.46
2017-04-09T00:34:43.414Z,22.47
2017-04-09T00:35:02.665Z,22.39
2017-04-09T00:35:21.982Z,22.47
2017-04-09T00:35:41.263Z,22.47
2017-04-09T00:36:00.547Z,22.49
2017-04-09T00:36:19.812Z,22.5
2017-04-09T00:36:39.093Z,22.49
2017-04-09T00:36:58.368Z,22.53
2017-04-09T00:37:17.118Z,22.6
2017-04-09T00:37:36.421Z,22.6
2017-04-09T00:37:55.766Z,22.56
2017-04-09T00:38:15.080Z,22.49
2017-04-09T00:38:34.370Z,22.54
2017-04-09T00:38:53.701Z,22.42
2017-04-09T00:39:13.012Z,22.46
2017-04-09T00:39:32.293Z,22.44
2017-04-09T00:39:51.638Z,22.46
2017-04-09T00:40:10.919Z,22.53
2017-04-09T00:40:29.200Z,22.47
2017-04-09T00:40:48.498Z,22.49
2017-04-09T00:41:07.791Z,22.52
2017-04-09T00:41:27.068Z,22.49
2017-04-09T00:41:46.329Z,22.44
2017-04-09T00:42:05.606Z,22.53
2017-04-09T00:42:24.908Z,22.42
2017-04-09T00:42:43.692Z,22.47
2017-04-09T00:43:03.114Z,22.47
2017-04-09T00:43:21.922Z,22.5
2017-04-09T00:43:41.169Z,22.46
2017-04-09T00:44:00.428Z,22.42
2017-04-09T00:44:19.787Z,22.49
2017-04-09T00:44:39.054Z,22.41
2017-04-09T00:44:58.363Z,22.47
2017-04-09T00:45:17.152Z,22.49
2017-04-09T00:45:36.433Z,22.5
2017-04-09T00:45:55.710Z,22.44
2017-04-09T00:46:14.752Z,22.41
2017-04-09T00:46:34.326Z,22.44
2017-04-09T00:46:53.104Z,22.47
2017-04-09T00:47:12.353Z,22.39
2017-04-09T00:47:31.136Z,22.38
2017-04-09T00:47:50.455Z,22.46
2017-04-09T00:48:09.360Z,22.37
2017-04-09T00:48:28.665Z,22.38
2017-04-09T00:48:47.933Z,22.41
2017-04-09T00:49:06.689Z,22.35
2017-04-09T00:49:25.931Z,22.38
2017-04-09T00:49:45.225Z,22.35
2017-04-09T00:50:04.555Z,22.35
2017-04-09T00:50:23.857Z,22.35
2017-04-09T00:50:43.183Z,22.37
2017-04-09T00:51:02.493Z,22.35
2017-04-09T00:51:21.767Z,22.31
2017-04-09T00:51:41.071Z,22.32
2017-04-09T00:51:59.865Z,22.32
2017-04-09T00:52:19.186Z,22.38
2017-04-09T00:52:38.487Z,22.26
2017-04-09T00:52:57.782Z,22.37
2017-04-09T00:53:17.062Z,22.32
2017-04-09T00:53:35.853Z,22.38
2017-04-09T00:53:55.165Z,22.3
2017-04-09T00:54:13.941Z,22.35
2017-04-09T00:54:33.264Z,22.23
2017-04-09T00:54:52.052Z,22.23
2017-04-09T00:55:11.365Z,22.31
2017-04-09T00:55:30.671Z,22.39
2017-04-09T00:55:49.447Z,22.24
2017-04-09T00:56:08.716Z,22.3
2017-04-09T00:56:28.003Z,22.3
2017-04-09T00:56:47.260Z,22.32
2017-04-09T00:57:06.555Z,22.3
2017-04-09T00:57:25.862Z,22.28
2017-04-09T00:57:45.173Z,22.3
2017-04-09T00:58:04.921Z,22.24
2017-04-09T00:58:24.243Z,22.28
2017-04-09T00:58:43.568Z,22.2
2017-04-09T00:59:02.880Z,22.31
2017-04-09T00:59:22.196Z,22.3
2017-04-09T00:59:41.484Z,22.26
2017-04-09T01:00:00.774Z,22.26
2017-04-09T01:00:20.077Z,22.24
2017-04-09T01:00:39.371Z,22.32
2017-04-09T01:00:58.697Z,22.35
2017-04-09T01:01:17.966Z,22.26
2017-04-09T01:01:36.731Z,22.23
2017-04-09T01:01:56.044Z,22.28
2017-04-09T01:02:15.319Z,22.39
2017-04-09T01:02:34.609Z,22.26
2017-04-09T01:02:53.883Z,22.3
2017-04-09T01:03:12.673Z,22.31
2017-04-09T01:03:31.970Z,22.22
2017-04-09T01:03:51.290Z,22.32
2017-04-09T01:04:10.563Z,22.32
2017-04-09T01:04:29.898Z,22.31
2017-04-09T01:04:49.175Z,22.24
2017-04-09T01:05:08.463Z,22.32
2017-04-09T01:05:27.735Z,22.28
2017-04-09T01:05:47.024Z,22.31
2017-04-09T01:06:06.306Z,22.28
2017-04-09T01:06:25.083Z,22.38
2017-04-09T01:06:44.355Z,22.3
2017-04-09T01:07:03.635Z,22.28
2017-04-09T01:07:22.402Z,22.3
2017-04-09T01:07:41.685Z,22.22
2017-04-09T01:08:00.657Z,22.23
2017-04-09T01:08:19.915Z,22.23
2017-04-09T01:08:39.227Z,22.23
2017-04-09T01:08:59.911Z,22.26
2017-04-09T01:09:18.663Z,22.2
2017-04-09T01:09:37.907Z,22.12
2017-04-09T01:09:57.240Z,22.22
2017-04-09T01:10:16.044Z,22.17
2017-04-09T01:10:35.334Z,22.19
2017-04-09T01:10:54.616Z,22.16
2017-04-09T01:11:13.885Z,22.17
2017-04-09T01:11:33.149Z,22.16
2017-04-09T01:11:52.411Z,22.22
2017-04-09T01:12:11.161Z,22.22
2017-04-09T01:12:29.953Z,22.22
2017-04-09T01:12:49.284Z,22.24
2017-04-09T01:13:08.663Z,22.23
2017-04-09T01:13:27.983Z,22.23
2017-04-09T01:13:47.312Z,22.26
2017-04-09T01:14:06.855Z,22.23
2017-04-09T01:14:26.157Z,22.19
2017-04-09T01:14:45.426Z,22.23
2017-04-09T01:15:04.711Z,22.26
2017-04-09T01:15:23.981Z,22.23
2017-04-09T01:15:43.281Z,22.19
2017-04-09T01:16:02.600Z,22.26
2017-04-09T01:16:21.932Z,22.19
2017-04-09T01:16:41.256Z,22.22
2017-04-09T01:17:00.556Z,22.2
2017-04-09T01:17:19.345Z,22.19
2017-04-09T01:17:38.145Z,22.17
2017-04-09T01:17:57.453Z,22.12
2017-04-09T01:18:16.237Z,22.16
2017-04-09T01:18:35.552Z,22.19
2017-04-09T01:18:54.880Z,22.16
2017-04-09T01:19:14.136Z,22.16
2017-04-09T01:19:33.398Z,22.15
2017-04-09T01:19:52.687Z,22.1
2017-04-09T01:20:11.960Z,22.02
2017-04-09T01:20:30.752Z,22.15
2017-04-09T01:20:50.050Z,22.15
2017-04-09T01:21:09.371Z,22.04
2017-04-09T01:21:28.683Z,22.1
2017-04-09T01:21:47.997Z,22.01
2017-04-09T01:22:07.289Z,22.02
2017-04-09T01:22:26.108Z,22.1
2017-04-09T01:22:45.390Z,22.13
2017-04-09T01:23:04.675Z,22.1
2017-04-09T01:23:23.452Z,22.13
2017-04-09T01:23:42.702Z,22.12
2017-04-09T01:24:02.003Z,22.15
2017-04-09T01:24:21.288Z,22.02
2017-04-09T01:24:40.603Z,22.1
2017-04-09T01:24:59.929Z,22.1
2017-04-09T01:25:18.732Z,22.1
2017-04-09T01:25:37.536Z,22.08
2017-04-09T01:25:56.845Z,22.13
2017-04-09T01:26:16.121Z,22.2
2017-04-09T01:26:35.395Z,22.1
2017-04-09T01:26:54.695Z,22.13
2017-04-09T01:27:13.986Z,22.17
2017-04-09T01:27:33.291Z,22.16
2017-04-09T01:27:52.546Z,22.12
2017-04-09T01:28:12.167Z,22.13
2017-04-09T01:28:31.449Z,22.15
2017-04-09T01:28:50.737Z,22.07
2017-04-09T01:29:10.037Z,22.04
2017-04-09T01:29:29.308Z,22.05
2017-04-09T01:29:48.584Z,22.15
2017-04-09T01:30:07.838Z,22.2
2017-04-09T01:30:27.154Z,22.15
2017-04-09T01:30:46.463Z,22.15
2017-04-09T01:31:05.773Z,22.1
2017-04-09T01:31:25.063Z,22.12
2017-04-09T01:31:44.341Z,22.16
2017-04-09T01:32:03.671Z,22.13
2017-04-09T01:32:22.962Z,22.07
2017-04-09T01:32:41.744Z,22.1
2017-04-09T01:33:01.033Z,22.15
2017-04-09T01:33:20.353Z,22.15
2017-04-09T01:33:39.647Z,22.1
2017-04-09T01:33:58.952Z,22.1
2017-04-09T01:34:18.242Z,22.13
2017-04-09T01:34:37.058Z,22.17
2017-04-09T01:34:56.402Z,22.15
2017-04-09T01:35:16.112Z,22.17
2017-04-09T01:35:35.451Z,22.17
2017-04-09T01:35:54.768Z,22.19
2017-04-09T01:36:14.082Z,22.17
2017-04-09T01:36:33.377Z,22.13
2017-04-09T01:36:52.657Z,22.17
2017-04-09T01:37:11.975Z,22.2
2017-04-09T01:37:31.272Z,22.22
2017-04-09T01:37:50.555Z,22.16
2017-04-09T01:38:09.852Z,22.23
2017-04-09T01:38:29.178Z,22.24
2017-04-09T01:38:48.471Z,22.16
2017-04-09T01:39:07.763Z,22.26
2017-04-09T01:39:26.022Z,22.16
2017-04-09T01:39:45.331Z,22.16
2017-04-09T01:40:04.609Z,22.2
2017-04-09T01:40:23.874Z,22.19
2017-04-09T01:40:43.112Z,22.28
2017-04-09T01:41:02.449Z,22.28
2017-04-09T01:41:21.728Z,22.3
2017-04-09T01:41:41.014Z,22.22
2017-04-09T01:42:00.344Z,22.2
2017-04-09T01:42:19.657Z,22.24
2017-04-09T01:42:38.954Z,22.28
2017-04-09T01:42:58.275Z,22.3
2017-04-09T01:43:17.599Z,22.32
2017-04-09T01:43:36.886Z,22.32
2017-04-09T01:43:56.151Z,22.19
2017-04-09T01:44:15.465Z,22.28
2017-04-09T01:44:34.773Z,22.34
2017-04-09T01:44:54.061Z,22.32
2017-04-09T01:45:13.347Z,22.35
2017-04-09T01:45:32.648Z,22.35
2017-04-09T01:45:51.422Z,22.35
2017-04-09T01:46:10.174Z,22.34
2017-04-09T01:46:29.433Z,22.26
2017-04-09T01:46:48.704Z,22.32
2017-04-09T01:47:07.961Z,22.28
2017-04-09T01:47:27.277Z,22.3
2017-04-09T01:47:46.551Z,22.32
2017-04-09T01:48:05.892Z,22.31
2017-04-09T01:48:25.181Z,22.35
2017-04-09T01:48:44.470Z,22.37
2017-04-09T01:49:03.777Z,22.34
2017-04-09T01:49:22.575Z,22.39
2017-04-09T01:49:41.898Z,22.34
2017-04-09T01:50:01.177Z,22.34
2017-04-09T01:50:19.940Z,22.31
2017-04-09T01:50:39.185Z,22.46
2017-04-09T01:50:58.451Z,22.37
2017-04-09T01:51:17.724Z,22.34
2017-04-09T01:51:35.989Z,22.34
2017-04-09T01:51:55.323Z,22.42
2017-04-09T01:52:14.082Z,22.41
2017-04-09T01:52:33.360Z,22.46
2017-04-09T01:52:52.121Z,22.42
2017-04-09T01:53:11.419Z,22.44
2017-04-09T01:53:30.693Z,22.47
2017-04-09T01:53:50.000Z,22.49
2017-04-09T01:54:09.288Z,22.34
2017-04-09T01:54:28.578Z,22.34
2017-04-09T01:54:47.875Z,22.49
2017-04-09T01:55:07.173Z,22.49
2017-04-09T01:55:26.008Z,22.42
2017-04-09T01:55:44.767Z,22.46
2017-04-09T01:56:04.031Z,22.47
2017-04-09T01:56:23.302Z,22.47
2017-04-09T01:56:42.584Z,22.5
2017-04-09T01:57:01.886Z,22.47
2017-04-09T01:57:20.694Z,22.44
2017-04-09T01:57:39.475Z,22.44
2017-04-09T01:57:58.732Z,22.42
2017-04-09T01:58:18.055Z,22.42
2017-04-09T01:58:37.365Z,22.49
2017-04-09T01:58:56.661Z,22.56
2017-04-09T01:59:15.963Z,22.59
2017-04-09T01:59:35.249Z,22.6
2017-04-09T01:59:54.562Z,22.57
2017-04-09T02:00:14.808Z,22.63
2017-04-09T02:00:45.036Z,22.59
2017-04-09T02:01:08.054Z,22.52
2017-04-09T02:01:28.139Z,22.57
2017-04-09T02:01:48.136Z,22.52
2017-04-09T02:02:07.558Z,22.57
2017-04-09T02:02:26.984Z,22.6
2017-04-09T02:02:46.967Z,22.59
2017-04-09T02:03:06.968Z,22.54
2017-04-09T02:03:26.987Z,22.56
2017-04-09T02:03:46.414Z,22.6
2017-04-09T02:04:06.421Z,22.53
2017-04-09T02:04:26.437Z,22.62
2017-04-09T02:04:46.421Z,22.67
2017-04-09T02:05:06.432Z,22.68
2017-04-09T02:05:26.431Z,22.59
2017-04-09T02:05:46.400Z,22.59
2017-04-09T02:06:05.851Z,22.71
2017-04-09T02:06:25.299Z,22.6
2017-04-09T02:06:45.285Z,22.72
2017-04-09T02:07:05.266Z,22.68
2017-04-09T02:07:24.706Z,22.67
2017-04-09T02:07:44.686Z,22.67
2017-04-09T02:08:04.750Z,22.56
2017-04-09T02:08:24.191Z,22.59
2017-04-09T02:08:44.184Z,22.59
2017-04-09T02:09:04.191Z,22.54
2017-04-09T02:09:24.227Z,22.57
2017-04-09T02:09:44.220Z,22.59
2017-04-09T02:10:04.198Z,22.53
2017-04-09T02:10:24.196Z,22.54
2017-04-09T02:10:44.189Z,22.54
2017-04-09T02:11:04.157Z,22.6
2017-04-09T02:11:24.144Z,22.62
2017-04-09T02:11:44.119Z,22.57
2017-04-09T02:12:02.994Z,22.54
2017-04-09T02:12:22.428Z,22.56
2017-04-09T02:12:42.421Z,22.44
2017-04-09T02:13:02.452Z,22.49
2017-04-09T02:13:22.431Z,22.44
2017-04-09T02:13:42.393Z,22.41
2017-04-09T02:14:01.834Z,22.46
2017-04-09T02:14:21.790Z,22.46
2017-04-09T02:14:41.756Z,22.42
2017-04-09T02:15:01.800Z,22.34
2017-04-09T02:15:21.771Z,22.47
2017-04-09T02:15:41.765Z,22.46
2017-04-09T02:16:01.758Z,22.31
2017-04-09T02:16:21.162Z,22.34
2017-04-09T02:16:41.172Z,22.34
2017-04-09T02:17:01.167Z,22.5
2017-04-09T02:17:21.148Z,22.41
2017-04-09T02:17:41.135Z,22.41
2017-04-09T02:18:01.106Z,22.38
2017-04-09T02:18:20.497Z,22.37
2017-04-09T02:18:40.508Z,22.35
2017-04-09T02:19:00.484Z,22.35
2017-04-09T02:19:20.488Z,22.34
2017-04-09T02:19:39.907Z,22.37
2017-04-09T02:19:59.916Z,22.38
2017-04-09T02:20:19.947Z,22.34
2017-04-09T02:20:39.931Z,22.41
2017-04-09T02:20:59.367Z,22.38
2017-04-09T02:21:19.358Z,22.39
2017-04-09T02:21:38.814Z,22.31
2017-04-09T02:21:58.262Z,22.34
2017-04-09T02:22:18.248Z,22.37
2017-04-09T02:22:38.245Z,22.37
2017-04-09T02:22:58.256Z,22.37
2017-04-09T02:23:18.266Z,22.32
2017-04-09T02:23:38.253Z,22.37
2017-04-09T02:23:58.263Z,22.38
2017-04-09T02:24:18.269Z,22.3
2017-04-09T02:24:38.240Z,22.32
2017-04-09T02:24:58.270Z,22.31
2017-04-09T02:25:18.255Z,22.28
2017-04-09T02:25:38.272Z,22.3
2017-04-09T02:25:58.291Z,22.32
2017-04-09T02:26:18.282Z,22.35
2017-04-09T02:26:38.298Z,22.37
2017-04-09T02:26:58.307Z,22.3
2017-04-09T02:27:18.335Z,22.2
2017-04-09T02:27:38.318Z,22.24
2017-04-09T02:27:58.398Z,22.28
2017-04-09T02:28:18.371Z,22.24
2017-04-09T02:28:38.379Z,22.3
2017-04-09T02:28:58.898Z,22.31
2017-04-09T02:29:18.906Z,22.35
2017-04-09T02:29:38.916Z,22.32
2017-04-09T02:29:58.314Z,22.34
2017-04-09T02:30:18.313Z,22.23
2017-04-09T02:30:37.735Z,22.26
2017-04-09T02:30:57.726Z,22.26
2017-04-09T02:31:17.739Z,22.19
2017-04-09T02:31:37.154Z,22.34
2017-04-09T02:31:57.150Z,22.24
2017-04-09T02:34:01.120Z,22.28
2017-04-09T02:34:21.120Z,22.28
2017-04-09T02:34:41.110Z,22.31
2017-04-09T02:35:01.116Z,22.24
2017-04-09T02:35:21.122Z,22.24
2017-04-09T02:35:41.129Z,22.26
2017-04-09T02:36:01.111Z,22.34
2017-04-09T02:36:21.128Z,22.28
2017-04-09T02:36:41.134Z,22.23
2017-04-09T02:37:00.599Z,22.3
2017-04-09T02:37:20.012Z,22.22
2017-04-09T02:37:40.014Z,22.26
2017-04-09T02:37:59.997Z,22.3
2017-04-09T02:38:19.962Z,22.32
2017-04-09T02:38:39.960Z,22.32
2017-04-09T02:39:00.006Z,22.24
2017-04-09T02:39:20.004Z,22.19
2017-04-09T02:39:39.991Z,22.28
2017-04-09T02:39:59.989Z,22.23
2017-04-09T02:40:19.994Z,22.23
2017-04-09T02:40:39.978Z,22.34
2017-04-09T02:40:59.988Z,22.28
2017-04-09T02:41:19.979Z,22.32
2017-04-09T02:41:39.948Z,22.24
2017-04-09T02:41:59.947Z,22.35
2017-04-09T02:42:19.386Z,22.32
2017-04-09T02:42:39.379Z,22.26
2017-04-09T02:42:59.361Z,22.34
2017-04-09T02:43:19.396Z,22.28
2017-04-09T02:43:39.360Z,22.2
2017-04-09T02:43:59.342Z,22.23
2017-04-09T02:44:19.308Z,22.28
2017-04-09T02:44:39.293Z,22.26
2017-04-09T02:44:59.243Z,22.23
2017-04-09T02:45:19.203Z,22.2
2017-04-09T02:45:39.210Z,22.15
2017-04-09T02:45:59.218Z,22.19
2017-04-09T02:46:19.207Z,22.16
2017-04-09T02:46:39.212Z,22.13
2017-04-09T02:46:59.181Z,22.16
2017-04-09T02:47:19.165Z,22.17
2017-04-09T02:47:38.582Z,22.28
2017-04-09T02:47:58.606Z,22.13
2017-04-09T02:48:18.631Z,22.17
2017-04-09T02:48:38.657Z,22.2
2017-04-09T02:48:58.114Z,22.15
2017-04-09T02:49:17.554Z,22.16
2017-04-09T02:49:37.567Z,22.19
2017-04-09T02:49:57.575Z,22.17
2017-04-09T02:50:17.760Z,22.19
2017-04-09T02:50:37.753Z,22.15
2017-04-09T02:50:57.748Z,22.3
2017-04-09T02:51:17.736Z,22.2
2017-04-09T02:51:37.699Z,22.19
2017-04-09T02:51:57.702Z,22.16
2017-04-09T02:52:17.698Z,22.2
2017-04-09T02:52:37.129Z,22.13
2017-04-09T02:52:57.108Z,22.15
2017-04-09T02:53:17.077Z,22.24
2017-04-09T02:53:37.050Z,22.12
2017-04-09T02:53:57.066Z,22.19
2017-04-09T02:54:16.497Z,22.31
2017-04-09T02:54:36.546Z,22.16
2017-04-09T02:54:56.771Z,22.2
2017-04-09T02:55:16.953Z,22.2
2017-04-09T02:55:36.368Z,22.16
2017-04-09T02:55:56.373Z,22.2
2017-04-09T02:56:15.820Z,22.28
2017-04-09T02:56:35.286Z,22.23
2017-04-09T02:56:55.274Z,22.34
2017-04-09T02:57:15.265Z,22.37
2017-04-09T02:57:34.131Z,22.32
2017-04-09T02:57:54.114Z,22.23
2017-04-09T02:58:14.116Z,22.24
2017-04-09T02:58:34.131Z,22.24
2017-04-09T02:58:54.137Z,22.28
2017-04-09T02:59:14.146Z,22.16
2017-04-09T02:59:34.146Z,22.3
2017-04-09T02:59:54.173Z,22.31
2017-04-09T03:00:13.608Z,22.2
2017-04-09T03:00:33.645Z,22.24
2017-04-09T03:00:53.639Z,22.26
2017-04-09T03:01:13.071Z,22.16
2017-04-09T03:01:33.189Z,22.2
2017-04-09T03:01:53.188Z,22.26
2017-04-09T03:02:13.165Z,22.23
2017-04-09T03:02:33.192Z,22.2
2017-04-09T03:02:53.189Z,22.17
2017-04-09T03:03:13.182Z,22.12
2017-04-09T03:03:33.189Z,22.23
2017-04-09T03:03:53.184Z,22.13
2017-04-09T03:04:12.640Z,22.24
2017-04-09T03:04:32.649Z,22.17
2017-04-09T03:04:52.077Z,22.19
2017-04-09T03:05:12.075Z,22.16
2017-04-09T03:05:31.514Z,22.16
2017-04-09T03:05:51.457Z,22.15
2017-04-09T03:06:11.448Z,22.12
2017-04-09T03:06:30.911Z,22.1
2017-04-09T03:06:50.895Z,22.13
2017-04-09T03:07:10.898Z,22.17
2017-04-09T03:07:30.888Z,22.16
2017-04-09T03:07:50.846Z,22.17
2017-04-09T03:08:10.825Z,22.15
2017-04-09T03:08:30.233Z,22.17
2017-04-09T03:08:50.230Z,22.17
2017-04-09T03:09:10.222Z,22.17
2017-04-09T03:09:30.247Z,22.17
2017-04-09T03:09:50.195Z,22.16
2017-04-09T03:10:10.163Z,22.15
2017-04-09T03:10:29.008Z,22.16
2017-04-09T03:10:49.010Z,22.17
2017-04-09T03:11:09.011Z,22.15
2017-04-09T03:11:28.955Z,22.19
2017-04-09T03:11:48.936Z,22.15
2017-04-09T03:12:08.934Z,22.08
2017-04-09T03:12:28.934Z,22.23
2017-04-09T03:12:48.979Z,22.13
2017-04-09T03:13:08.975Z,22.19
2017-04-09T03:13:27.837Z,22.16
2017-04-09T03:13:47.804Z,22.2
2017-04-09T03:14:07.812Z,22.17
2017-04-09T03:14:27.247Z,22.24
2017-04-09T03:14:47.237Z,22.16
2017-04-09T03:15:07.234Z,22.2
2017-04-09T03:15:27.244Z,22.19
2017-04-09T03:15:47.239Z,22.12
2017-04-09T03:16:07.242Z,22.19
2017-04-09T03:16:27.255Z,22.13
2017-04-09T03:16:47.232Z,22.19
2017-04-09T03:17:07.196Z,22.02
2017-04-09T03:17:27.163Z,22.15
2017-04-09T03:17:47.149Z,22.15
2017-04-09T03:18:07.135Z,22.15
2017-04-09T03:18:27.100Z,22.19
2017-04-09T03:18:47.072Z,22.22
2017-04-09T03:19:07.060Z,22.2
2017-04-09T03:19:26.474Z,22.2
2017-04-09T03:19:46.486Z,22.16
2017-04-09T03:20:06.445Z,22.16
2017-04-09T03:20:26.414Z,22.2
2017-04-09T03:20:46.425Z,22.19
2017-04-09T03:21:05.877Z,22.19
2017-04-09T03:21:25.869Z,22.15
2017-04-09T03:21:45.869Z,22.12
2017-04-09T03:22:05.862Z,22.15
2017-04-09T03:22:25.283Z,22.16
2017-04-09T03:22:45.262Z,22.16
2017-04-09T03:23:05.275Z,22.19
2017-04-09T03:23:25.257Z,22.19
2017-04-09T03:23:45.245Z,22.17
2017-04-09T03:24:04.667Z,22.19
2017-04-09T03:24:24.677Z,22.16
2017-04-09T03:24:44.683Z,22.2
2017-04-09T03:25:04.680Z,22.17
2017-04-09T03:25:24.639Z,22.15
2017-04-09T03:25:44.636Z,22.16
2017-04-09T03:26:04.596Z,22.19
2017-04-09T03:26:24.561Z,22.22
2017-04-09T03:26:44.542Z,22.1
2017-04-09T03:27:04.532Z,22.16
2017-04-09T03:27:24.003Z,22.19
2017-04-09T03:27:43.981Z,22.22
2017-04-09T03:28:04.002Z,22.15
2017-04-09T03:28:23.989Z,22.28
2017-04-09T03:28:43.963Z,22.26
2017-04-09T03:29:03.933Z,22.2
2017-04-09T03:29:23.909Z,22.32
2017-04-09T03:29:43.877Z,22.23
2017-04-09T03:30:03.884Z,22.28
2017-04-09T03:30:23.875Z,22.28
2017-04-09T03:30:43.848Z,22.19
2017-04-09T03:31:03.837Z,22.26
2017-04-09T03:31:23.833Z,22.3
2017-04-09T03:31:43.820Z,22.26
2017-04-09T03:32:03.835Z,22.15
2017-04-09T03:32:23.258Z,22.31
2017-04-09T03:32:42.696Z,22.28
2017-04-09T03:33:02.706Z,22.19
2017-04-09T03:33:22.848Z,22.31
2017-04-09T03:33:42.811Z,22.22
2017-04-09T03:34:02.822Z,22.24
2017-04-09T03:34:22.830Z,22.35
2017-04-09T03:34:42.835Z,22.26
2017-04-09T03:35:02.813Z,22.26
2017-04-09T03:35:22.259Z,22.24
2017-04-09T03:35:42.247Z,22.16
2017-04-09T03:36:02.228Z,22.26
2017-04-09T03:36:22.181Z,22.2
2017-04-09T03:36:42.177Z,22.19
2017-04-09T03:37:02.196Z,22.24
2017-04-09T03:37:21.054Z,22.19
2017-04-09T03:37:40.532Z,22.2
2017-04-09T03:38:00.510Z,22.23
2017-04-09T03:38:20.516Z,22.16
2017-04-09T03:38:39.959Z,22.2
2017-04-09T03:39:00.126Z,22.15
2017-04-09T03:39:20.113Z,22.16
2017-04-09T03:40:05.585Z,22.24
2017-04-09T03:40:24.140Z,22.23
2017-04-09T03:40:43.430Z,22.15
2017-04-09T03:41:03.899Z,22.23
2017-04-09T03:41:23.180Z,22.23
2017-04-09T03:41:42.547Z,22.16
2017-04-09T03:42:01.790Z,22.24
2017-04-09T03:42:21.066Z,22.19
2017-04-09T03:42:40.386Z,22.24
2017-04-09T03:42:59.679Z,22.22
2017-04-09T03:43:18.956Z,22.28
2017-04-09T03:43:38.260Z,22.2
2017-04-09T03:43:57.569Z,22.23
2017-04-09T03:44:16.360Z,22.2
2017-04-09T03:44:35.672Z,22.26
2017-04-09T03:44:54.927Z,22.17
2017-04-09T03:45:14.223Z,22.28
2017-04-09T03:45:33.482Z,22.28
2017-04-09T03:45:52.765Z,22.26
2017-04-09T03:46:12.031Z,22.26
2017-04-09T03:46:30.277Z,22.24
2017-04-09T03:46:49.036Z,22.28
2017-04-09T03:47:08.328Z,22.32
2017-04-09T03:47:27.129Z,22.26
2017-04-09T03:47:46.443Z,22.3
2017-04-09T03:48:05.714Z,22.26
2017-04-09T03:48:24.990Z,22.24
2017-04-09T03:48:44.295Z,22.35
2017-04-09T03:49:03.609Z,22.32
2017-04-09T03:49:22.393Z,22.35
2017-04-09T03:49:41.663Z,22.37
2017-04-09T03:50:00.417Z,22.35
2017-04-09T03:50:19.736Z,22.39
2017-04-09T03:50:39.048Z,22.37
2017-04-09T03:50:58.325Z,22.34
2017-04-09T03:51:17.600Z,22.35
2017-04-09T03:51:36.902Z,22.35
2017-04-09T03:51:56.204Z,22.3
2017-04-09T03:52:15.526Z,22.31
2017-04-09T03:52:34.838Z,22.34
2017-04-09T03:52:53.618Z,22.3
2017-04-09T03:53:12.394Z,22.28
2017-04-09T03:53:31.683Z,22.24
2017-04-09T03:53:50.998Z,22.3
2017-04-09T03:54:09.755Z,22.3
2017-04-09T03:54:29.060Z,22.26
2017-04-09T03:54:48.380Z,22.31
2017-04-09T03:55:07.676Z,22.24
2017-04-09T03:55:26.944Z,22.37
2017-04-09T03:55:46.229Z,22.34
2017-04-09T03:56:05.540Z,22.34
2017-04-09T03:56:24.829Z,22.35
2017-04-09T03:56:44.120Z,22.28
2017-04-09T03:57:03.389Z,22.2
2017-04-09T03:57:22.644Z,22.23
2017-04-09T03:57:41.976Z,22.3
2017-04-09T03:58:01.270Z,22.28
2017-04-09T03:58:20.603Z,22.22
2017-04-09T03:58:39.880Z,22.28
2017-04-09T03:58:59.148Z,22.22
2017-04-09T03:59:18.442Z,22.23
2017-04-09T03:59:37.217Z,22.35
2017-04-09T03:59:55.998Z,22.34
2017-04-09T04:00:15.270Z,22.32
2017-04-09T04:00:34.578Z,22.37
2017-04-09T04:00:53.845Z,22.28
2017-04-09T04:01:13.136Z,22.34
2017-04-09T04:01:31.882Z,22.26
2017-04-09T04:01:51.179Z,22.22
2017-04-09T04:02:10.472Z,22.23
2017-04-09T04:02:28.714Z,22.16
2017-04-09T04:02:48.013Z,22.22
2017-04-09T04:03:07.317Z,22.23
2017-04-09T04:03:26.597Z,22.22
2017-04-09T04:03:45.835Z,22.19
2017-04-09T04:04:05.143Z,22.16
2017-04-09T04:04:24.425Z,22.22
2017-04-09T04:04:43.710Z,22.22
2017-04-09T04:05:02.996Z,22.24
2017-04-09T04:05:22.288Z,22.22
2017-04-09T04:05:41.562Z,22.2
2017-04-09T04:06:00.858Z,22.15
2017-04-09T04:06:19.638Z,22.19
2017-04-09T04:06:38.391Z,22.15
2017-04-09T04:06:57.702Z,22.19
2017-04-09T04:07:16.961Z,22.13
2017-04-09T04:07:36.247Z,22.13
2017-04-09T04:07:55.027Z,22.13
2017-04-09T04:08:14.307Z,22.2
2017-04-09T04:08:33.554Z,22.17
2017-04-09T04:08:52.964Z,22.26
2017-04-09T04:09:12.253Z,22.23
2017-04-09T04:09:31.559Z,22.24
2017-04-09T04:09:50.845Z,22.22
2017-04-09T04:10:10.170Z,22.23
2017-04-09T04:10:29.448Z,22.3
2017-04-09T04:10:48.214Z,22.26
2017-04-09T04:11:07.543Z,22.17
2017-04-09T04:11:26.303Z,22.19
2017-04-09T04:11:45.592Z,22.17
2017-04-09T04:12:04.877Z,22.19
2017-04-09T04:12:23.638Z,22.15
2017-04-09T04:12:42.929Z,22.15
2017-04-09T04:13:02.216Z,22.08
2017-04-09T04:13:21.505Z,22.15
2017-04-09T04:13:40.788Z,22.17
2017-04-09T04:14:00.413Z,22.19